createdAt,value
2023-03-12T00:00:56.918Z,5.20
2023-03-12T00:03:35.424Z,4.70
2023-03-12T00:06:10.541Z,5.20
2023-03-12T00:08:39.927Z,4.60
2023-03-12T00:11:10.562Z,4.60
2023-03-12T00:13:39.070Z,5.30
2023-03-12T00:16:09.744Z,5.20
2023-03-12T00:18:37.620Z,3.90
2023-03-12T00:21:06.023Z,5.60
2023-03-12T00:23:34.135Z,6.00
2023-03-12T00:26:07.029Z,6.40
2023-03-12T00:28:35.583Z,6.20
2023-03-12T00:31:27.850Z,4.70
2023-03-12T00:33:56.163Z,3.50
2023-03-12T00:36:26.590Z,5.50
2023-03-12T00:38:55.219Z,6.70
2023-03-12T00:41:24.082Z,4.20
2023-03-12T00:43:52.392Z,3.20
2023-03-12T00:46:21.216Z,4.70
2023-03-12T00:48:48.861Z,5.80
2023-03-12T00:51:16.500Z,5.90
2023-03-12T00:53:44.479Z,6.90
2023-03-12T00:56:12.091Z,5.60
2023-03-12T00:58:39.722Z,4.50
2023-03-12T01:01:07.378Z,5.10
2023-03-12T01:03:34.961Z,6.00
2023-03-12T01:06:02.527Z,4.60
2023-03-12T01:08:30.562Z,4.00
2023-03-12T01:10:58.160Z,5.80
2023-03-12T01:13:25.798Z,5.00
2023-03-12T01:15:53.366Z,7.30
2023-03-12T01:18:21.112Z,6.10
2023-03-12T01:20:48.751Z,7.30
2023-03-12T01:23:16.401Z,5.60
2023-03-12T01:25:43.962Z,5.40
2023-03-12T01:28:11.556Z,5.40
2023-03-12T01:30:39.172Z,8.90
2023-03-12T01:33:06.747Z,7.50
2023-03-12T01:35:38.762Z,8.30
2023-03-12T01:38:13.709Z,6.70
2023-03-12T01:40:43.180Z,6.70
2023-03-12T01:43:29.499Z,6.10
2023-03-12T01:46:15.868Z,5.10
2023-03-12T01:48:48.452Z,7.20
2023-03-12T01:51:18.682Z,6.10
2023-03-12T01:53:49.677Z,5.00
2023-03-12T01:56:19.573Z,6.10
2023-03-12T01:58:52.818Z,3.70
2023-03-12T02:01:22.183Z,5.70
2023-03-12T02:03:53.758Z,5.40
2023-03-12T02:06:29.285Z,5.10
2023-03-12T02:09:00.605Z,6.20
2023-03-12T02:11:28.296Z,6.00
2023-03-12T02:13:55.942Z,6.10
2023-03-12T02:16:23.640Z,5.80
2023-03-12T02:18:54.594Z,6.60
2023-03-12T02:21:24.881Z,8.00
2023-03-12T02:24:14.105Z,6.40
2023-03-12T02:26:42.472Z,4.90
2023-03-12T02:29:11.253Z,5.20
2023-03-12T02:31:44.649Z,4.70
2023-03-12T02:34:12.312Z,3.90
2023-03-12T02:36:40.383Z,3.50
2023-03-12T02:39:09.537Z,4.90
2023-03-12T02:41:44.667Z,4.80
2023-03-12T02:44:16.593Z,5.10
2023-03-12T02:46:50.092Z,4.90
2023-03-12T02:49:19.971Z,6.10
2023-03-12T02:51:48.006Z,5.20
2023-03-12T02:54:17.694Z,5.60
2023-03-12T02:56:45.619Z,7.40
2023-03-12T02:59:13.464Z,6.20
2023-03-12T03:01:41.922Z,8.40
2023-03-12T03:04:11.034Z,5.20
2023-03-12T03:06:43.234Z,5.40
2023-03-12T03:09:10.918Z,6.00
2023-03-12T03:11:38.528Z,6.30
2023-03-12T03:14:06.149Z,7.90
2023-03-12T03:16:34.540Z,8.00
2023-03-12T03:19:02.301Z,5.90
2023-03-12T03:21:29.987Z,8.20
2023-03-12T03:23:57.633Z,11.50
2023-03-12T03:26:25.645Z,8.70
2023-03-12T03:28:53.606Z,6.00
2023-03-12T03:31:21.776Z,6.80
2023-03-12T03:33:49.579Z,7.00
2023-03-12T03:36:17.388Z,7.90
2023-03-12T03:38:45.386Z,8.50
2023-03-12T03:41:12.945Z,7.20
2023-03-12T03:43:40.512Z,8.80
2023-03-12T03:46:08.133Z,6.90
2023-03-12T03:48:35.727Z,6.70
2023-03-12T03:51:05.548Z,7.40
2023-03-12T03:53:33.648Z,6.70
2023-03-12T03:56:13.703Z,9.70
2023-03-12T03:58:41.799Z,7.60
2023-03-12T04:01:09.467Z,9.20
2023-03-12T04:03:37.124Z,8.40
2023-03-12T04:06:06.361Z,10.70
2023-03-12T04:08:35.730Z,8.60
2023-03-12T04:11:15.863Z,9.60
2023-03-12T04:13:43.778Z,6.60
2023-03-12T04:16:12.189Z,10.40
2023-03-12T04:18:40.133Z,9.00
2023-03-12T04:21:10.806Z,12.20
2023-03-12T04:23:38.884Z,5.90
2023-03-12T04:26:07.502Z,10.60
2023-03-12T04:28:36.174Z,10.20
2023-03-12T04:31:06.235Z,9.20
2023-03-12T04:33:36.583Z,10.20
2023-03-12T04:36:04.726Z,9.80
2023-03-12T04:38:32.333Z,5.80
2023-03-12T04:41:08.436Z,9.50
2023-03-12T04:43:36.130Z,9.00
2023-03-12T04:46:04.233Z,8.70
2023-03-12T04:48:32.582Z,9.80
2023-03-12T04:51:00.161Z,6.90
2023-03-12T04:53:27.856Z,6.00
2023-03-12T04:55:55.628Z,11.90
2023-03-12T04:58:23.224Z,10.20
2023-03-12T05:00:51.345Z,8.50
2023-03-12T05:03:19.228Z,14.50
2023-03-12T05:05:47.007Z,13.10
2023-03-12T05:08:14.647Z,13.30
2023-03-12T05:10:42.307Z,10.80
2023-03-12T05:13:17.765Z,7.10
2023-03-12T05:15:46.475Z,7.40
2023-03-12T05:18:14.400Z,8.20
2023-03-12T05:20:42.164Z,7.20
2023-03-12T05:23:09.752Z,13.00
2023-03-12T05:25:41.283Z,13.60
2023-03-12T05:28:09.166Z,6.20
2023-03-12T05:30:36.728Z,7.90
2023-03-12T05:33:04.298Z,11.60
2023-03-12T05:35:31.994Z,5.10
2023-03-12T05:37:59.609Z,10.70
2023-03-12T05:40:27.166Z,8.60
2023-03-12T05:42:54.763Z,10.70
2023-03-12T05:45:22.396Z,7.20
2023-03-12T05:47:49.984Z,7.00
2023-03-12T05:50:17.642Z,6.70
2023-03-12T05:52:45.224Z,6.20
2023-03-12T05:55:12.819Z,8.80
2023-03-12T05:57:40.411Z,7.50
2023-03-12T06:00:09.032Z,5.50
2023-03-12T06:02:36.667Z,7.50
2023-03-12T06:05:04.938Z,11.90
2023-03-12T06:07:32.504Z,7.90
2023-03-12T06:10:00.087Z,8.70
2023-03-12T06:12:27.665Z,10.40
2023-03-12T06:14:55.230Z,25.90
2023-03-12T06:17:22.926Z,11.20
2023-03-12T06:19:51.568Z,7.40
2023-03-12T06:22:19.586Z,12.00
2023-03-12T06:24:47.396Z,14.50
2023-03-12T06:27:15.102Z,10.40
2023-03-12T06:29:42.947Z,9.40
2023-03-12T06:32:10.503Z,7.00
2023-03-12T06:34:38.211Z,7.50
2023-03-12T06:37:06.012Z,8.50
2023-03-12T06:39:33.569Z,7.10
2023-03-12T06:42:01.356Z,6.70
2023-03-12T06:44:29.132Z,6.50
2023-03-12T06:46:57.104Z,4.60
2023-03-12T06:49:24.945Z,7.00
2023-03-12T06:51:53.658Z,7.00
2023-03-12T06:54:21.481Z,5.60
2023-03-12T06:56:49.361Z,7.40
2023-03-12T06:59:17.243Z,6.30
2023-03-12T07:01:44.777Z,5.80
2023-03-12T07:04:12.318Z,7.50
2023-03-12T07:06:39.960Z,5.50
2023-03-12T07:09:07.957Z,5.80
2023-03-12T07:11:35.756Z,6.20
2023-03-12T07:14:03.450Z,6.90
2023-03-12T07:16:31.453Z,3.00
2023-03-12T07:18:59.394Z,3.90
2023-03-12T07:21:27.432Z,4.70
2023-03-12T07:23:55.532Z,4.60
2023-03-12T07:26:23.525Z,6.20
2023-03-12T07:28:51.264Z,4.90
2023-03-12T07:31:19.174Z,5.00
2023-03-12T07:33:47.191Z,6.20
2023-03-12T07:36:15.042Z,3.10
2023-03-12T07:38:42.717Z,5.20
2023-03-12T07:41:10.643Z,5.60
2023-03-12T07:43:38.276Z,3.90
2023-03-12T07:46:06.092Z,5.90
2023-03-12T07:48:33.889Z,3.60
2023-03-12T07:51:01.790Z,7.50
2023-03-12T07:53:29.618Z,6.80
2023-03-12T07:55:57.749Z,5.30
2023-03-12T07:58:25.603Z,6.50
2023-03-12T08:00:55.548Z,6.00
2023-03-12T08:03:23.352Z,4.70
2023-03-12T08:06:02.109Z,5.30
2023-03-12T08:08:31.003Z,5.10
2023-03-12T08:11:00.406Z,3.70
2023-03-12T08:13:28.403Z,6.20
2023-03-12T08:15:56.356Z,5.40
2023-03-12T08:18:24.890Z,4.60
2023-03-12T08:20:54.117Z,3.70
2023-03-12T08:23:22.566Z,4.50
2023-03-12T08:25:51.296Z,6.10
2023-03-12T08:28:20.256Z,5.90
2023-03-12T08:30:50.143Z,4.20
2023-03-12T08:33:18.091Z,2.60
2023-03-12T08:35:46.287Z,6.00
2023-03-12T08:38:14.232Z,6.60
2023-03-12T08:40:42.275Z,4.20
2023-03-12T08:43:10.067Z,3.80
2023-03-12T08:45:37.799Z,4.50
2023-03-12T08:48:07.196Z,6.60
2023-03-12T08:50:35.116Z,3.80
2023-03-12T08:53:02.923Z,5.00
2023-03-12T08:55:30.501Z,3.80
2023-03-12T08:57:58.189Z,4.80
2023-03-12T09:00:26.081Z,3.10
2023-03-12T09:02:54.077Z,3.80
2023-03-12T09:05:21.696Z,3.00
2023-03-12T09:07:49.618Z,4.10
2023-03-12T09:10:18.013Z,4.50
2023-03-12T09:12:45.905Z,3.20
2023-03-12T09:15:13.850Z,4.70
2023-03-12T09:17:41.649Z,3.00
2023-03-12T09:20:11.012Z,4.60
2023-03-12T09:22:38.613Z,4.40
2023-03-12T09:25:08.299Z,4.00
2023-03-12T09:27:44.178Z,4.40
2023-03-12T09:30:18.783Z,3.80
2023-03-12T09:32:47.588Z,4.70
2023-03-12T09:35:16.460Z,3.40
2023-03-12T09:37:48.395Z,3.50
2023-03-12T09:40:19.622Z,5.10
2023-03-12T09:42:53.418Z,5.70
2023-03-12T09:45:27.093Z,4.50
2023-03-12T09:48:01.474Z,3.50
2023-03-12T09:50:35.988Z,5.10
2023-03-12T09:53:24.015Z,3.50
2023-03-12T09:55:54.409Z,4.30
2023-03-12T09:58:25.491Z,3.10
2023-03-12T10:01:34.837Z,3.20
2023-03-12T10:04:17.608Z,4.30
2023-03-12T10:06:47.243Z,5.30
2023-03-12T10:09:54.509Z,3.60
2023-03-12T10:12:47.683Z,1.60
2023-03-12T10:15:44.577Z,2.90
2023-03-12T10:18:30.093Z,3.70
2023-03-12T10:21:08.173Z,2.80
2023-03-12T10:23:53.401Z,2.50
2023-03-12T10:26:30.044Z,2.70
2023-03-12T10:29:02.132Z,2.60
2023-03-12T10:31:36.226Z,3.60
2023-03-12T10:34:16.685Z,2.70
2023-03-12T10:36:45.864Z,2.50
2023-03-12T10:39:19.852Z,2.70
2023-03-12T10:41:48.672Z,2.40
2023-03-12T10:44:22.113Z,2.10
2023-03-12T10:46:59.290Z,2.70
2023-03-12T10:49:30.656Z,2.50
2023-03-12T10:52:19.814Z,3.30
2023-03-12T10:54:50.524Z,3.10
2023-03-12T10:57:19.761Z,4.80
2023-03-12T10:59:48.884Z,2.40
2023-03-12T11:02:34.116Z,2.60
2023-03-12T11:05:18.304Z,3.30
2023-03-12T11:07:46.332Z,2.70
2023-03-12T11:10:26.672Z,3.30
2023-03-12T11:13:23.728Z,3.10
2023-03-12T11:15:52.226Z,2.60
2023-03-12T11:18:29.423Z,3.30
2023-03-12T11:21:12.830Z,3.30
2023-03-12T11:23:44.591Z,2.60
2023-03-12T11:26:18.224Z,2.30
2023-03-12T11:28:52.288Z,2.60
2023-03-12T11:31:28.399Z,2.50
2023-03-12T11:36:54.478Z,2.00
2023-03-12T11:39:42.030Z,2.20
2023-03-12T11:42:37.266Z,2.90
2023-03-12T11:45:27.096Z,3.00
2023-03-12T11:48:23.989Z,2.40
2023-03-12T11:51:00.564Z,1.80
2023-03-12T11:53:46.051Z,2.90
2023-03-12T11:56:29.312Z,3.60
2023-03-12T11:58:59.615Z,2.60
2023-03-12T12:01:54.902Z,3.30
2023-03-12T12:04:52.131Z,2.90
2023-03-12T12:07:49.253Z,3.00
2023-03-12T12:10:38.171Z,3.00
2023-03-12T12:13:18.083Z,3.00
2023-03-12T12:15:54.575Z,3.00
2023-03-12T12:19:02.202Z,3.00
2023-03-12T12:21:45.419Z,2.30
2023-03-12T12:24:35.980Z,2.80
2023-03-12T12:27:22.532Z,2.70
2023-03-12T12:30:14.753Z,2.90
2023-03-12T12:33:03.770Z,3.00
2023-03-12T12:35:39.597Z,2.50
2023-03-12T12:38:21.327Z,2.40
2023-03-12T12:40:55.754Z,2.00
2023-03-12T12:43:58.755Z,2.60
2023-03-12T12:46:32.392Z,2.30
2023-03-12T12:49:10.031Z,2.10
2023-03-12T12:51:43.973Z,2.50
2023-03-12T12:54:31.146Z,2.70
2023-03-12T12:57:19.924Z,2.80
2023-03-12T12:59:56.758Z,2.30
2023-03-12T13:02:27.728Z,1.90
2023-03-12T13:04:57.972Z,2.40
2023-03-12T13:07:27.856Z,2.60
2023-03-12T13:09:58.095Z,2.30
2023-03-12T13:12:49.849Z,2.20
2023-03-12T13:15:29.572Z,2.20
2023-03-12T13:18:22.620Z,1.90
2023-03-12T13:20:53.307Z,2.00
2023-03-12T13:23:41.703Z,1.80
2023-03-12T13:26:31.728Z,1.90
2023-03-12T13:29:19.937Z,2.30
2023-03-12T13:31:47.738Z,1.90
2023-03-12T13:34:18.338Z,2.80
2023-03-12T13:36:47.692Z,3.20
2023-03-12T13:39:15.208Z,1.70
2023-03-12T13:41:45.816Z,2.40
2023-03-12T13:44:27.437Z,1.80
2023-03-12T13:47:19.657Z,2.20
2023-03-12T13:49:55.763Z,2.60
2023-03-12T13:52:46.054Z,2.30
2023-03-12T13:55:13.560Z,1.80
2023-03-12T13:57:43.955Z,2.60
2023-03-12T14:00:18.939Z,2.40
2023-03-12T14:03:18.804Z,2.80
2023-03-12T14:05:55.556Z,3.20
2023-03-12T14:08:35.016Z,2.60
2023-03-12T14:11:14.572Z,2.90
2023-03-12T14:14:19.566Z,3.30
2023-03-12T14:16:51.254Z,3.30
2023-03-12T14:19:34.994Z,4.00
2023-03-12T14:22:06.567Z,4.00
2023-03-12T14:24:47.856Z,3.30
2023-03-12T14:27:21.571Z,3.90
2023-03-12T14:30:15.957Z,5.20
2023-03-12T14:32:45.963Z,3.60
2023-03-12T14:35:18.020Z,3.60
2023-03-12T14:37:58.101Z,3.10
2023-03-12T14:40:43.815Z,4.10
2023-03-12T14:43:22.706Z,4.60
2023-03-12T14:45:54.167Z,3.80
2023-03-12T14:48:24.234Z,3.80
2023-03-12T14:50:51.809Z,3.50
2023-03-12T14:53:24.698Z,3.90
2023-03-12T14:56:06.510Z,4.00
2023-03-12T14:58:41.540Z,3.90
2023-03-12T15:01:14.461Z,3.70
2023-03-12T15:03:46.211Z,3.90
2023-03-12T15:06:29.279Z,3.90
2023-03-12T15:08:58.186Z,4.40
2023-03-12T15:11:28.888Z,3.80
2023-03-12T15:14:21.763Z,3.50
2023-03-12T15:16:50.582Z,5.40
2023-03-12T15:19:27.516Z,4.90
2023-03-12T15:21:55.981Z,4.80
2023-03-12T15:24:24.530Z,4.80
2023-03-12T15:26:52.277Z,4.10
2023-03-12T15:29:24.359Z,3.90
2023-03-12T15:31:58.102Z,4.30
2023-03-12T15:34:33.501Z,5.50
2023-03-12T15:37:03.702Z,4.70
2023-03-12T15:42:02.876Z,4.20
2023-03-12T15:44:44.995Z,4.40
2023-03-12T15:47:33.125Z,5.20
2023-03-12T15:50:05.994Z,4.60
2023-03-12T15:52:35.882Z,3.30
2023-03-12T15:55:06.441Z,4.20
2023-03-12T15:57:34.662Z,5.50
2023-03-12T16:00:11.258Z,4.40
2023-03-12T16:02:46.969Z,5.60
2023-03-12T16:05:14.874Z,4.90
2023-03-12T16:07:42.538Z,6.00
2023-03-12T16:10:14.421Z,4.50
2023-03-12T16:12:44.689Z,5.40
2023-03-12T16:15:24.729Z,6.20
2023-03-12T16:17:52.378Z,4.70
2023-03-12T16:20:20.088Z,5.30
2023-03-12T16:22:47.810Z,5.40
2023-03-12T16:25:15.418Z,4.90
2023-03-12T16:27:50.937Z,5.30
2023-03-12T16:30:24.718Z,6.80
2023-03-12T16:32:52.371Z,7.20
2023-03-12T16:35:21.570Z,4.80
2023-03-12T16:37:49.377Z,5.70
2023-03-12T16:40:30.791Z,4.60
2023-03-12T16:43:03.132Z,5.60
2023-03-12T16:45:33.849Z,5.60
2023-03-12T16:48:05.326Z,5.40
2023-03-12T16:50:33.150Z,5.80
2023-03-12T16:53:02.948Z,5.80
2023-03-12T16:55:40.503Z,4.30
2023-03-12T16:58:13.252Z,7.30
2023-03-12T17:00:41.303Z,6.40
2023-03-12T17:03:18.640Z,6.20
2023-03-12T17:05:46.608Z,6.00
2023-03-12T17:08:15.083Z,8.10
2023-03-12T17:10:42.743Z,7.90
2023-03-12T17:13:19.418Z,8.40
2023-03-12T17:15:48.076Z,6.30
2023-03-12T17:18:18.309Z,7.90
2023-03-12T17:20:47.708Z,7.80
2023-03-12T17:23:15.561Z,7.00
2023-03-12T17:25:43.988Z,5.80
2023-03-12T17:28:12.449Z,5.80
2023-03-12T17:30:40.214Z,5.70
2023-03-12T17:33:11.580Z,6.60
2023-03-12T17:35:39.746Z,5.90
2023-03-12T17:38:08.562Z,6.70
2023-03-12T17:40:43.906Z,6.00
2023-03-12T17:43:11.989Z,5.40
2023-03-12T17:45:39.765Z,6.10
2023-03-12T17:48:07.535Z,6.20
2023-03-12T17:50:36.027Z,4.30
2023-03-12T17:53:03.878Z,6.60
2023-03-12T17:55:31.524Z,6.80
2023-03-12T17:57:59.094Z,8.70
2023-03-12T18:00:27.749Z,5.20
2023-03-12T18:02:55.873Z,7.10
2023-03-12T18:05:24.372Z,5.30
2023-03-12T18:07:52.284Z,7.00
2023-03-12T18:10:20.232Z,6.00
2023-03-12T18:12:48.007Z,6.40
2023-03-12T18:15:15.632Z,4.70
2023-03-12T18:17:44.259Z,5.50
2023-03-12T18:20:12.626Z,5.50
2023-03-12T18:22:41.834Z,5.80
2023-03-12T18:25:10.909Z,6.10
2023-03-12T18:27:38.972Z,5.80
2023-03-12T18:30:08.026Z,6.70
2023-03-12T18:32:35.785Z,7.00
2023-03-12T18:35:03.900Z,7.60
2023-03-12T18:37:31.458Z,11.80
2023-03-12T18:39:59.235Z,18.80
2023-03-12T18:42:27.061Z,21.80
2023-03-12T18:44:54.905Z,23.00
2023-03-12T18:47:23.164Z,23.10
2023-03-12T18:49:50.778Z,13.50
2023-03-12T18:52:18.610Z,10.10
2023-03-12T18:54:46.874Z,8.50
2023-03-12T18:57:14.742Z,8.90
2023-03-12T18:59:42.312Z,7.50
2023-03-12T19:02:10.516Z,8.80
2023-03-12T19:04:38.522Z,10.30
2023-03-12T19:07:07.536Z,9.70
2023-03-12T19:09:35.123Z,7.60
2023-03-12T19:12:02.984Z,7.20
2023-03-12T19:14:31.026Z,8.10
2023-03-12T19:16:58.797Z,9.20
2023-03-12T19:19:26.515Z,8.50
2023-03-12T19:21:54.255Z,7.90
2023-03-12T19:24:21.830Z,10.60
2023-03-12T19:26:49.475Z,19.00
2023-03-12T19:29:17.437Z,15.60
2023-03-12T19:31:45.138Z,10.10
2023-03-12T19:34:12.774Z,13.00
2023-03-12T19:36:40.451Z,9.40
2023-03-12T19:39:15.302Z,11.50
2023-03-12T19:41:48.118Z,11.60
2023-03-12T19:44:15.765Z,11.90
2023-03-12T19:46:43.760Z,8.90
2023-03-12T19:49:11.671Z,12.90
2023-03-12T19:51:39.280Z,13.10
2023-03-12T19:54:07.942Z,15.60
2023-03-12T19:56:35.590Z,17.30
2023-03-12T19:59:03.317Z,15.20
2023-03-12T20:01:30.948Z,15.10
2023-03-12T20:03:58.665Z,17.10
2023-03-12T20:06:26.245Z,16.60
2023-03-12T20:08:53.809Z,14.30
2023-03-12T20:11:21.408Z,14.50
2023-03-12T20:13:49.052Z,13.40
2023-03-12T20:16:16.825Z,14.20
2023-03-12T20:18:45.202Z,13.90
2023-03-12T20:21:13.007Z,12.80
2023-03-12T20:23:40.652Z,13.00
2023-03-12T20:26:08.327Z,13.00
2023-03-12T20:28:36.024Z,11.70
2023-03-12T20:31:11.391Z,11.40
2023-03-12T20:33:39.062Z,9.90
2023-03-12T20:36:12.853Z,11.80
2023-03-12T20:38:41.044Z,12.60
2023-03-12T20:41:13.187Z,12.80
2023-03-12T20:43:45.188Z,11.50
2023-03-12T20:46:13.280Z,10.60
2023-03-12T20:48:40.898Z,9.80
2023-03-12T20:51:08.469Z,10.80
2023-03-12T20:53:36.045Z,10.80
2023-03-12T20:56:06.514Z,7.60
2023-03-12T20:58:34.856Z,8.40
2023-03-12T21:01:04.463Z,9.80
2023-03-12T21:03:32.251Z,9.90
2023-03-12T21:06:01.798Z,8.20
2023-03-12T21:08:30.013Z,9.90
2023-03-12T21:10:57.573Z,10.20
2023-03-12T21:13:25.232Z,9.00
2023-03-12T21:15:52.878Z,10.80
2023-03-12T21:18:20.460Z,9.50
2023-03-12T21:20:48.346Z,8.30
2023-03-12T21:23:16.075Z,8.50
2023-03-12T21:25:43.724Z,9.20
2023-03-12T21:28:11.413Z,10.10
2023-03-12T21:30:39.026Z,10.20
2023-03-12T21:33:06.672Z,10.20
2023-03-12T21:35:34.412Z,10.60
2023-03-12T21:38:02.069Z,10.90
2023-03-12T21:40:29.670Z,11.40
2023-03-12T21:42:57.229Z,12.10
2023-03-12T21:45:24.819Z,9.50
2023-03-12T21:47:52.419Z,10.90
2023-03-12T21:50:20.277Z,11.00
2023-03-12T21:52:48.049Z,13.90
2023-03-12T21:55:16.855Z,10.60
2023-03-12T21:57:45.375Z,9.60
2023-03-12T22:00:13.569Z,10.70
2023-03-12T22:02:42.293Z,11.10
2023-03-12T22:05:11.456Z,11.50
2023-03-12T22:07:39.173Z,11.00
2023-03-12T22:10:08.655Z,13.60
2023-03-12T22:12:36.207Z,11.10
2023-03-12T22:15:05.430Z,10.10
2023-03-12T22:17:33.061Z,8.90
2023-03-12T22:20:00.612Z,5.30
2023-03-12T22:22:28.186Z,6.30
2023-03-12T22:24:55.735Z,6.80
2023-03-12T22:27:23.342Z,9.20
2023-03-12T22:29:51.017Z,10.80
2023-03-12T22:32:19.054Z,13.40
2023-03-12T22:34:46.708Z,13.80
2023-03-12T22:37:14.283Z,15.40
2023-03-12T22:39:41.905Z,8.40
2023-03-12T22:42:09.501Z,8.50
2023-03-12T22:44:41.464Z,8.30
2023-03-12T22:47:09.093Z,9.00
2023-03-12T22:49:36.636Z,10.00
2023-03-12T22:52:04.494Z,5.20
2023-03-12T22:54:32.013Z,9.50
2023-03-12T22:56:59.600Z,7.30
2023-03-12T22:59:27.159Z,10.10
2023-03-12T23:01:54.781Z,12.10
2023-03-12T23:04:22.442Z,9.40
2023-03-12T23:06:50.091Z,7.80
2023-03-12T23:09:17.717Z,8.60
2023-03-12T23:11:45.284Z,6.20
2023-03-12T23:14:12.895Z,6.70
2023-03-12T23:16:40.628Z,4.90
2023-03-12T23:19:08.194Z,5.30
2023-03-12T23:21:35.780Z,5.20
2023-03-12T23:24:03.602Z,4.00
2023-03-12T23:26:31.224Z,2.90
2023-03-12T23:28:59.294Z,4.30
2023-03-12T23:31:29.061Z,3.50
2023-03-12T23:33:56.764Z,3.20
2023-03-12T23:36:24.819Z,3.50
2023-03-12T23:38:52.585Z,2.50
2023-03-12T23:41:25.744Z,3.30
2023-03-12T23:43:53.318Z,4.10
2023-03-12T23:46:21.295Z,2.60
2023-03-12T23:48:49.596Z,3.40
2023-03-12T23:51:20.341Z,3.40
2023-03-12T23:53:50.399Z,4.80
2023-03-12T23:56:20.303Z,2.90
2023-03-12T23:58:49.664Z,3.80
